Time;durP1;ratioP1;P1;durP2;ratioP2;P2;SDS_P1;SDS_P2;PMS_P1;PMS_P2;Temp;Humidity;BMP_temperature;BMP_pressure;BME280_temperature;BME280_humidity;BME280_pressure;Samples;Min_cycle;Max_cycle;Signal;HPM_P1;HPM_P2
2021/10/28 00:12:35;;;;;;;15.90;8.85;;;;;;;2.78;89.59;97939.53;4950962;28;20059;-55
2021/10/28 00:15:04;;;;;;;18.52;7.95;;;;;;;2.72;89.44;97938.44;4948820;28;20545;-57
2021/10/28 00:17:57;;;;;;;14.40;8.35;;;;;;;2.69;89.16;97939.66;4965640;28;20102;-56
2021/10/28 00:20:23;;;;;;;16.35;9.20;;;;;;;2.67;89.43;97938.19;4949503;28;20054;-54
2021/10/28 00:22:48;;;;;;;14.07;8.02;;;;;;;2.66;89.45;97936.53;4962223;28;20030;-54
2021/10/28 00:25:14;;;;;;;16.27;8.32;;;;;;;2.63;89.39;97929.72;4966773;28;20038;-56
2021/10/28 00:27:39;;;;;;;15.93;9.15;;;;;;;2.61;89.43;97923.69;4965008;28;20034;-56
2021/10/28 00:30:06;;;;;;;14.93;8.40;;;;;;;2.56;89.14;97926.97;4949309;28;20074;-55
2021/10/28 00:32:31;;;;;;;14.07;8.65;;;;;;;2.50;89.71;97919.66;4962240;28;20074;-53
2021/10/28 00:34:56;;;;;;;12.60;8.30;;;;;;;2.51;89.76;97920.50;4954314;28;20480;-54
2021/10/28 00:37:22;;;;;;;16.23;8.43;;;;;;;2.55;90.01;97916.44;4950558;28;20248;-56
2021/10/28 00:39:48;;;;;;;17.52;9.70;;;;;;;2.51;89.61;97924.00;4965895;28;20054;-54
2021/10/28 00:42:14;;;;;;;15.30;8.02;;;;;;;2.38;89.48;97922.00;4957737;28;20030;-55
2021/10/28 00:44:39;;;;;;;15.82;7.63;;;;;;;2.52;88.94;97924.81;4966824;28;20030;-57
2021/10/28 00:47:06;;;;;;;15.50;8.52;;;;;;;2.45;89.41;97920.25;4953984;28;20043;-57
2021/10/28 00:49:32;;;;;;;14.00;8.00;;;;;;;2.40;89.21;97911.13;4951486;28;20489;-57
2021/10/28 00:51:57;;;;;;;17.55;7.85;;;;;;;2.36;88.90;97915.97;4955368;28;20498;-55
2021/10/28 00:54:23;;;;;;;14.30;7.90;;;;;;;2.45;89.47;97919.41;4957474;28;20043;-58
2021/10/28 00:56:49;;;;;;;16.50;9.52;;;;;;;2.53;89.37;97913.13;4965967;28;20403;-56
2021/10/28 00:59:15;;;;;;;15.35;8.93;;;;;;;2.51;89.36;97917.84;4956823;28;20031;-56
2021/10/28 01:01:41;;;;;;;15.85;8.73;;;;;;;2.58;89.69;97910.72;4958515;28;20565;-57
2021/10/28 01:04:07;;;;;;;22.50;9.95;;;;;;;2.60;89.46;97908.69;4958107;28;20035;-58
2021/10/28 01:06:34;;;;;;;21.38;9.93;;;;;;;2.69;90.01;97909.41;4957186;28;20098;-55
2021/10/28 01:09:00;;;;;;;16.33;9.50;;;;;;;2.68;89.20;97905.91;4964805;28;20034;-57
2021/10/28 01:11:27;;;;;;;16.30;9.73;;;;;;;2.52;88.48;97916.81;4976292;28;20105;-53
2021/10/28 01:13:55;;;;;;;17.40;8.70;;;;;;;2.50;88.96;97908.97;4952845;28;20244;-56
2021/10/28 01:16:20;;;;;;;16.30;9.07;;;;;;;2.54;88.34;97910.25;4964202;28;20675;-55
2021/10/28 01:18:46;;;;;;;15.18;8.43;;;;;;;2.36;87.23;97915.97;4967042;28;20031;-55
2021/10/28 01:21:11;;;;;;;12.95;8.35;;;;;;;2.20;87.85;97917.00;4959293;28;20030;-58
2021/10/28 01:23:40;;;;;;;17.52;9.35;;;;;;;2.01;88.76;97913.88;4964366;28;20437;-57
2021/10/28 01:26:11;;;;;;;19.05;9.60;;;;;;;1.84;89.70;97907.88;4953305;28;20029;-57
2021/10/28 01:28:39;;;;;;;17.38;9.57;;;;;;;1.92;90.30;97906.97;4967247;28;20053;-56
2021/10/28 01:31:08;;;;;;;23.02;11.63;;;;;;;1.87;90.44;97904.84;4957456;28;20019;-55
2021/10/28 01:33:35;;;;;;;17.00;10.65;;;;;;;1.81;90.02;97898.38;4964243;28;20037;-57
2021/10/28 01:36:01;;;;;;;21.67;10.80;;;;;;;1.80;90.02;97893.22;4969279;28;20059;-56
2021/10/28 01:38:27;;;;;;;18.35;10.07;;;;;;;1.80;90.03;97895.91;4968023;28;20502;-55
2021/10/28 01:40:56;;;;;;;19.08;10.57;;;;;;;1.66;89.92;97890.34;4965848;28;20106;-57
2021/10/28 01:43:23;;;;;;;23.48;12.20;;;;;;;1.63;91.05;97896.06;4967918;28;20840;-55
2021/10/28 01:45:49;;;;;;;20.60;11.48;;;;;;;1.68;91.37;97891.03;4969599;28;20034;-55
2021/10/28 01:48:14;;;;;;;23.42;11.25;;;;;;;1.55;90.00;97894.28;4961414;28;20030;-57
2021/10/28 01:50:41;;;;;;;23.88;10.85;;;;;;;1.51;90.13;97900.19;4969609;28;20023;-57
2021/10/28 01:53:07;;;;;;;19.38;11.10;;;;;;;1.54;90.81;97897.13;4950914;28;20457;-55
2021/10/28 01:55:33;;;;;;;22.75;11.57;;;;;;;1.65;90.98;97891.38;4968492;28;20034;-55
2021/10/28 01:57:58;;;;;;;25.20;12.27;;;;;;;1.73;91.18;97886.97;4967986;28;20031;-52
2021/10/28 02:00:24;;;;;;;21.45;10.88;;;;;;;1.65;90.08;97887.88;4961751;28;20071;-54
2021/10/28 02:02:50;;;;;;;28.27;13.68;;;;;;;1.79;91.80;97887.06;4962741;28;20042;-54
2021/10/28 02:05:17;;;;;;;28.98;13.27;;;;;;;1.73;90.26;97885.13;4957104;28;20018;-53
2021/10/28 02:07:43;;;;;;;26.67;12.30;;;;;;;1.87;90.75;97898.66;4968556;28;20049;-57
2021/10/28 02:10:10;;;;;;;23.33;12.93;;;;;;;1.87;89.65;97890.66;4962479;28;20110;-56
2021/10/28 02:12:37;;;;;;;23.55;12.13;;;;;;;1.78;89.54;97887.25;4961548;28;20070;-55
2021/10/28 02:15:06;;;;;;;24.80;12.30;;;;;;;1.69;90.12;97887.34;4959502;28;20035;-57
2021/10/28 02:17:32;;;;;;;22.73;12.77;;;;;;;1.59;90.83;97880.59;4963492;28;20062;-57
2021/10/28 02:19:57;;;;;;;24.77;13.25;;;;;;;1.60;91.22;97885.75;4967199;28;20035;-57
2021/10/28 02:22:23;;;;;;;24.60;12.95;;;;;;;1.76;89.96;97886.59;4967280;28;20066;-53
2021/10/28 02:24:48;;;;;;;30.70;14.18;;;;;;;1.78;90.85;97881.91;4956769;28;20714;-53
2021/10/28 02:27:14;;;;;;;30.00;13.43;;;;;;;1.81;90.72;97876.22;4951459;28;20693;-56
2021/10/28 02:29:39;;;;;;;31.05;14.88;;;;;;;1.68;89.08;97880.34;4953721;28;20051;-55
2021/10/28 02:32:05;;;;;;;19.83;10.75;;;;;;;1.53;88.65;97882.97;4957783;28;20019;-55
2021/10/28 02:34:31;;;;;;;24.50;12.65;;;;;;;1.56;90.02;97879.13;4954187;28;20031;-53
2021/10/28 02:36:56;;;;;;;21.45;12.27;;;;;;;1.60;88.96;97874.25;4965283;28;20038;-55
2021/10/28 02:39:22;;;;;;;22.02;11.63;;;;;;;1.41;88.39;97873.75;4960133;28;20043;-55
2021/10/28 02:41:47;;;;;;;24.40;12.15;;;;;;;1.41;89.10;97879.09;4963522;28;20023;-56
2021/10/28 02:44:13;;;;;;;22.55;11.63;;;;;;;1.50;90.07;97871.81;4967736;28;20046;-56
2021/10/28 02:46:39;;;;;;;21.02;12.20;;;;;;;1.35;89.12;97869.13;4957962;28;20046;-55
2021/10/28 02:49:14;;;;;;;22.63;12.35;;;;;;;1.39;89.91;97862.41;4962852;28;20719;-55
2021/10/28 02:51:40;;;;;;;28.80;12.68;;;;;;;1.47;88.78;97869.53;4961126;28;20035;-55
2021/10/28 02:54:06;;;;;;;24.75;12.95;;;;;;;1.64;88.87;97871.03;4957649;28;20035;-56
2021/10/28 02:56:32;;;;;;;20.45;11.88;;;;;;;1.76;87.50;97862.56;4966838;28;20038;-57
2021/10/28 02:58:58;;;;;;;19.67;10.95;;;;;;;1.57;86.52;97862.09;4966851;28;20053;-56
2021/10/28 03:01:24;;;;;;;21.10;11.20;;;;;;;1.51;87.68;97862.81;4964182;28;20031;-56
2021/10/28 03:03:50;;;;;;;21.90;11.18;;;;;;;1.34;87.67;97862.13;4966631;28;20026;-56
2021/10/28 03:06:15;;;;;;;20.30;11.40;;;;;;;1.27;88.38;97864.69;4956268;28;20039;-58
2021/10/28 03:08:41;;;;;;;23.25;11.60;;;;;;;1.23;88.91;97861.56;4955279;28;20106;-56
2021/10/28 03:11:08;;;;;;;26.35;13.70;;;;;;;1.49;90.42;97856.81;4965788;28;20105;-58
2021/10/28 03:13:34;;;;;;;26.92;14.23;;;;;;;1.41;89.77;97853.22;4949440;28;20417;-57
2021/10/28 03:16:10;;;;;;;25.98;13.75;;;;;;;1.69;89.73;97852.63;4956292;28;20039;-57
2021/10/28 03:25:35;;;;;;;25.27;13.63;;;;;;;1.88;90.32;97858.44;4964778;28;20108;-54
2021/10/28 03:27:04;;;;;;;29.20;14.55;;;;;;;1.81;87.53;97850.31;4957194;28;20572;-55
2021/10/28 03:29:30;;;;;;;29.67;13.35;;;;;;;1.79;88.28;97852.34;4949380;29;20114;-55
2021/10/28 03:31:55;;;;;;;26.52;13.30;;;;;;;1.86;89.15;97847.13;4958695;28;20034;-57
2021/10/28 03:34:21;;;;;;;30.35;14.95;;;;;;;1.99;89.57;97846.44;4966355;28;20026;-55
2021/10/28 03:50:37;;;;;;;26.00;14.40;;;;;;;2.30;90.02;97855.28;4963197;28;20062;-58
2021/10/28 04:08:34;;;;;;;40.13;19.52;;;;;;;3.53;92.00;97858.94;4960858;28;20110;-57
2021/10/28 04:19:25;;;;;;;28.02;16.15;;;;;;;3.57;90.87;97849.50;4951899;28;20047;-56
2021/10/28 04:29:44;;;;;;;31.88;16.15;;;;;;;3.44;91.71;97844.06;4957500;28;20487;-58
2021/10/28 04:32:09;;;;;;;30.40;16.75;;;;;;;3.44;91.61;97850.25;4958636;28;20089;-57
2021/10/28 04:34:35;;;;;;;33.85;17.35;;;;;;;3.56;91.85;97847.03;4953546;28;20049;-58
2021/10/28 04:37:01;;;;;;;32.75;17.60;;;;;;;3.66;91.74;97842.16;4962379;28;20042;-57
2021/10/28 04:39:26;;;;;;;33.33;17.50;;;;;;;3.74;91.37;97843.84;4953379;28;20035;-57
2021/10/28 04:41:52;;;;;;;40.72;18.48;;;;;;;3.79;91.43;97844.09;4962365;28;20052;-57
2021/10/28 04:44:17;;;;;;;38.35;19.30;;;;;;;3.88;91.67;97844.78;4957272;28;20034;-56
2021/10/28 04:46:43;;;;;;;36.55;19.30;;;;;;;3.93;91.87;97845.00;4959221;28;20407;-57
2021/10/28 04:49:08;;;;;;;43.15;22.05;;;;;;;3.94;91.86;97840.50;4978745;28;20077;-57
2021/10/28 04:51:34;;;;;;;38.88;19.55;;;;;;;3.96;92.09;97831.22;4964066;28;20050;-56
2021/10/28 04:54:00;;;;;;;36.78;19.52;;;;;;;3.92;91.98;97840.69;4961966;28;20446;-56
2021/10/28 04:56:25;;;;;;;39.00;19.63;;;;;;;4.02;91.59;97835.78;4963774;28;20643;-57
2021/10/28 04:58:51;;;;;;;40.08;20.45;;;;;;;4.00;91.55;97824.44;4961890;28;20074;-57
2021/10/28 05:01:16;;;;;;;40.33;20.77;;;;;;;3.94;91.84;97829.78;4960483;28;20031;-55
2021/10/28 05:03:42;;;;;;;44.50;20.83;;;;;;;3.95;92.00;97831.41;4965427;28;20494;-55
2021/10/28 05:06:07;;;;;;;44.97;21.65;;;;;;;3.94;92.23;97827.91;4968177;28;20023;-57
2021/10/28 05:08:34;;;;;;;42.92;22.27;;;;;;;3.97;92.10;97826.66;4968133;28;20081;-52
2021/10/28 05:11:00;;;;;;;39.28;20.30;;;;;;;4.03;92.10;97826.69;4963993;28;20102;-57
2021/10/28 05:13:25;;;;;;;38.10;20.17;;;;;;;4.06;92.11;97822.00;4949424;28;20509;-56
2021/10/28 05:15:52;;;;;;;47.10;22.45;;;;;;;4.08;92.35;97820.75;4966787;28;20058;-55
2021/10/28 05:18:21;;;;;;;46.92;21.23;;;;;;;4.18;92.26;97825.75;4967104;28;20136;-56
2021/10/28 05:20:47;;;;;;;41.40;20.95;;;;;;;4.24;92.10;97824.13;4966370;28;20034;-53
2021/10/28 05:23:12;;;;;;;43.35;19.70;;;;;;;4.33;91.76;97814.88;4966841;28;20050;-56
2021/10/28 05:25:39;;;;;;;36.17;19.67;;;;;;;4.42;91.69;97815.53;4959757;28;20090;-57
2021/10/28 05:28:04;;;;;;;44.65;22.88;;;;;;;4.43;92.03;97819.88;4962699;28;20585;-57
2021/10/28 05:30:30;;;;;;;40.83;20.50;;;;;;;4.52;91.81;97823.19;4963607;28;20023;-57
2021/10/28 05:32:56;;;;;;;51.67;23.50;;;;;;;4.53;92.10;97819.47;4949461;28;20717;-57
2021/10/28 05:35:22;;;;;;;49.95;22.95;;;;;;;4.59;92.04;97807.97;4968866;28;20027;-57
2021/10/28 05:37:48;;;;;;;41.63;20.05;;;;;;;4.64;92.05;97805.50;4960786;28;20050;-57
2021/10/28 05:40:13;;;;;;;54.25;23.73;;;;;;;4.69;91.95;97808.38;4949340;28;20063;-57
2021/10/28 05:42:43;;;;;;;56.00;24.65;;;;;;;4.75;92.08;97808.63;4951842;28;20110;-57
2021/10/28 05:45:10;;;;;;;49.38;23.80;;;;;;;4.88;91.78;97805.13;4949245;28;20083;-58
2021/10/28 05:47:35;;;;;;;47.92;23.50;;;;;;;4.98;91.60;97804.72;4960938;28;20121;-56
2021/10/28 05:50:01;;;;;;;51.42;24.10;;;;;;;5.00;92.12;97808.84;4960220;28;20768;-51
2021/10/28 05:52:27;;;;;;;38.65;17.92;;;;;;;5.47;91.42;97803.50;4964370;28;20033;-53
2021/10/28 05:54:53;;;;;;;48.28;22.05;;;;;;;5.64;90.53;97805.72;4951313;28;20043;-50
2021/10/28 05:57:18;;;;;;;39.65;21.55;;;;;;;5.83;88.58;97809.41;4961092;28;20090;-51
2021/10/28 05:59:43;;;;;;;35.65;19.58;;;;;;;5.88;88.36;97797.19;4954323;28;20066;-50
2021/10/28 06:02:09;;;;;;;35.28;19.45;;;;;;;6.01;88.24;97791.78;4966558;28;20034;-51
2021/10/28 06:04:34;;;;;;;31.25;18.90;;;;;;;6.24;87.27;97803.94;4960664;28;20505;-47
2021/10/28 06:07:00;;;;;;;29.55;17.00;;;;;;;6.32;86.98;97800.19;4961266;28;20451;-49
2021/10/28 06:09:25;;;;;;;29.20;17.50;;;;;;;6.25;86.88;97802.91;4955143;28;20031;-48
2021/10/28 06:11:51;;;;;;;32.20;17.95;;;;;;;6.48;87.16;97805.06;4965925;28;20113;-47
2021/10/28 06:14:22;;;;;;;33.60;17.85;;;;;;;6.78;85.50;97797.47;4955096;28;20122;-53
2021/10/28 06:16:53;;;;;;;31.83;17.95;;;;;;;6.24;86.89;97799.38;4954073;28;20035;-56
2021/10/28 06:19:18;;;;;;;31.92;19.33;;;;;;;5.98;88.19;97806.47;4966815;28;20680;-55
2021/10/28 06:21:45;;;;;;;35.97;20.17;;;;;;;5.90;88.50;97804.00;4961683;28;20035;-54
2021/10/28 06:24:10;;;;;;;36.00;19.90;;;;;;;5.89;88.84;97804.25;4956800;28;20035;-56
2021/10/28 06:26:36;;;;;;;33.38;18.33;;;;;;;5.97;88.50;97804.81;4964399;28;20050;-57
2021/10/28 06:29:01;;;;;;;36.50;19.98;;;;;;;5.96;88.69;97807.72;4962528;28;20035;-56
2021/10/28 06:31:26;;;;;;;38.90;20.88;;;;;;;5.92;88.76;97804.63;4957585;28;20117;-56
2021/10/28 06:33:59;;;;;;;39.70;21.65;;;;;;;5.87;89.15;97807.13;4965706;28;20027;-54
2021/10/28 06:36:26;;;;;;;43.92;20.63;;;;;;;5.86;89.18;97810.84;4966788;28;20664;-56
2021/10/28 06:38:51;;;;;;;41.45;21.02;;;;;;;5.94;88.99;97801.75;4964099;28;20106;-57
2021/10/28 06:41:17;;;;;;;41.95;22.20;;;;;;;5.92;89.35;97806.50;4956806;28;20106;-56
2021/10/28 06:43:42;;;;;;;42.38;22.15;;;;;;;5.93;89.41;97814.34;4950706;28;20039;-55
2021/10/28 06:46:08;;;;;;;40.20;22.20;;;;;;;5.99;89.37;97813.53;4956684;28;20404;-55
2021/10/28 06:48:34;;;;;;;38.60;19.13;;;;;;;6.10;88.82;97805.84;4964039;28;20062;-55
2021/10/28 06:51:01;;;;;;;42.28;22.00;;;;;;;6.07;89.04;97807.09;4956998;28;20415;-56
2021/10/28 06:53:31;;;;;;;43.15;20.13;;;;;;;6.04;88.92;97807.53;4965880;28;20062;-56
2021/10/28 06:56:02;;;;;;;44.70;21.73;;;;;;;6.11;89.09;97804.81;4965004;28;20039;-57
2021/10/28 07:03:56;;;;;;;40.42;20.42;;;;;;;6.31;88.34;97802.06;4956337;28;20022;-56
2021/10/28 07:06:24;;;;;;;42.83;20.90;;;;;;;6.31;88.03;97804.75;4951252;28;20524;-55
2021/10/28 07:09:05;;;;;;;41.58;22.33;;;;;;;6.39;88.02;97814.44;4962971;28;20031;-56
2021/10/28 07:11:34;;;;;;;45.20;21.75;;;;;;;6.36;87.89;97804.94;4948635;28;20035;-57
2021/10/28 07:14:04;;;;;;;39.25;20.55;;;;;;;6.55;87.10;97813.13;4958630;28;20030;-57
2021/10/28 07:17:26;;;;;;;39.80;20.75;;;;;;;6.51;87.20;97809.19;4966320;28;20123;-57
2021/10/28 07:24:57;;;;;;;40.70;21.17;;;;;;;6.50;87.41;97818.31;4972270;28;20045;-55
2021/10/28 08:23:12;;;;;;;29.98;16.63;;;;;;;7.11;84.34;97808.00;4951972;28;20047;-57
2021/10/28 08:31:26;;;;;;;29.27;16.63;;;;;;;7.20;84.10;97805.88;4970430;28;20037;-54
2021/10/28 08:33:52;;;;;;;30.38;17.42;;;;;;;7.41;83.74;97812.72;4981808;28;20030;-55
2021/10/28 08:36:28;;;;;;;28.77;16.65;;;;;;;7.54;82.50;97801.03;4965703;28;20310;-56
2021/10/28 08:38:55;;;;;;;29.85;17.42;;;;;;;7.30;83.03;97797.31;4962486;28;20096;-57
2021/10/28 08:41:23;;;;;;;33.75;16.73;;;;;;;7.22;84.05;97797.56;4963468;28;20130;-55
2021/10/28 08:43:50;;;;;;;29.85;17.38;;;;;;;7.39;83.68;97805.91;4961567;28;20038;-56
2021/10/28 08:46:16;;;;;;;29.63;16.50;;;;;;;7.51;83.20;97809.53;4960864;28;20074;-54
2021/10/28 08:48:48;;;;;;;30.50;16.83;;;;;;;7.67;82.28;97799.25;4964350;28;20026;-55
2021/10/28 08:56:31;;;;;;;31.17;17.58;;;;;;;7.59;83.15;97792.25;4953018;28;20043;-55
2021/10/28 09:27:05;;;;;;;30.05;15.98;;;;;;;7.94;81.85;97780.09;4923457;29;20039;-57
2021/10/28 09:51:34;;;;;;;23.92;14.30;;;;;;;8.28;80.26;97794.00;4949892;28;20406;-56
2021/10/28 09:59:46;;;;;;;25.52;14.85;;;;;;;8.07;81.77;97777.25;4962657;28;20023;-57
2021/10/28 10:02:38;;;;;;;26.38;15.43;;;;;;;8.02;81.64;97777.09;4962723;28;20043;-57
2021/10/28 10:05:06;;;;;;;29.60;15.73;;;;;;;8.15;81.65;97776.09;4969487;28;20034;-57
2021/10/28 10:07:32;;;;;;;24.10;14.90;;;;;;;8.20;81.36;97770.03;4969756;28;20038;-56
2021/10/28 10:09:59;;;;;;;29.40;15.45;;;;;;;8.26;81.50;97774.50;4967826;28;20034;-55
2021/10/28 10:12:25;;;;;;;24.00;14.15;;;;;;;8.40;80.75;97774.38;4966829;28;20031;-54
2021/10/28 10:14:50;;;;;;;24.73;14.68;;;;;;;8.38;80.51;97774.59;4961693;28;20399;-56
2021/10/28 10:17:18;;;;;;;26.65;14.23;;;;;;;8.46;80.54;97779.69;4963173;28;20054;-58
2021/10/28 10:19:48;;;;;;;24.50;14.88;;;;;;;8.40;81.05;97774.38;4959151;28;20038;-56
2021/10/28 11:21:54;;;;;;;20.35;12.07;;;;;;;10.13;75.02;97721.38;4966063;28;20553;-57
2021/10/28 11:27:20;;;;;;;21.60;12.77;;;;;;;10.26;75.04;97714.88;4964952;28;20038;-54
2021/10/28 12:44:43;;;;;;;15.23;8.90;;;;;;;12.31;65.32;97624.28;4949850;28;20069;-57
2021/10/28 13:59:49;;;;;;;16.83;10.50;;;;;;;18.48;48.87;97567.28;4961014;28;20086;-57
2021/10/28 14:16:57;;;;;;;20.30;12.55;;;;;;;18.49;47.64;97552.47;4968660;28;20039;-55
2021/10/28 15:34:28;;;;;;;18.25;12.50;;;;;;;12.31;67.37;97520.31;4962723;28;20019;-58
2021/10/28 15:39:37;;;;;;;18.15;11.63;;;;;;;11.43;71.19;97522.97;4964688;28;20513;-58
2021/10/28 15:42:34;;;;;;;17.70;11.88;;;;;;;11.28;71.60;97524.44;4967810;28;20462;-58
2021/10/28 15:53:48;;;;;;;17.92;11.05;;;;;;;10.09;74.85;97523.53;4968143;28;20137;-50
2021/10/28 15:56:15;;;;;;;15.65;10.88;;;;;;;9.90;75.40;97517.53;4961443;28;20039;-53
2021/10/28 16:23:01;;;;;;;21.30;13.65;;;;;;;7.97;81.87;97515.41;4953824;28;20039;-57
2021/10/28 16:25:28;;;;;;;20.67;12.25;;;;;;;7.75;82.28;97512.41;4948061;28;20051;-58
2021/10/28 16:27:54;;;;;;;19.95;12.00;;;;;;;7.52;82.28;97509.41;4948366;28;20043;-56
2021/10/28 16:30:19;;;;;;;23.20;12.52;;;;;;;7.54;82.86;97512.69;4947744;28;20035;-58
2021/10/28 16:32:45;;;;;;;23.30;12.35;;;;;;;7.55;82.93;97519.72;4948274;28;20042;-58
2021/10/28 16:35:10;;;;;;;19.20;12.70;;;;;;;7.47;82.60;97511.13;4962304;28;20030;-58
2021/10/28 16:37:36;;;;;;;24.27;13.02;;;;;;;7.29;83.01;97512.81;4962101;28;20085;-57
2021/10/28 16:40:06;;;;;;;22.65;12.73;;;;;;;7.04;83.76;97508.34;4965501;28;20026;-58
2021/10/28 16:42:32;;;;;;;22.33;12.65;;;;;;;6.92;84.07;97516.38;4966817;28;20038;-53
2021/10/28 16:44:58;;;;;;;23.48;14.10;;;;;;;6.81;84.27;97520.63;4967387;28;20042;-54
2021/10/28 16:47:25;;;;;;;31.73;17.23;;;;;;;6.78;84.60;97526.44;4967433;28;20022;-55
2021/10/28 16:49:51;;;;;;;30.92;15.30;;;;;;;6.73;84.67;97526.31;4967113;28;20035;-56
2021/10/28 16:52:16;;;;;;;27.08;14.68;;;;;;;6.58;85.16;97519.41;4966938;28;20679;-56
2021/10/28 16:54:42;;;;;;;33.63;13.70;;;;;;;6.57;84.90;97517.78;4963051;28;20046;-55
2021/10/28 16:57:07;;;;;;;28.23;15.05;;;;;;;6.54;85.16;97520.91;4961271;28;20035;-53
2021/10/28 16:59:33;;;;;;;28.52;15.48;;;;;;;6.45;85.17;97516.88;4957325;28;20074;-57
2021/10/28 17:01:58;;;;;;;24.77;14.88;;;;;;;6.40;85.48;97512.13;4958068;28;20070;-58
2021/10/28 17:04:24;;;;;;;30.38;16.30;;;;;;;6.38;85.86;97519.63;4961479;28;20070;-55
2021/10/28 17:06:52;;;;;;;28.65;14.95;;;;;;;6.36;85.50;97519.00;4955255;28;20035;-58
2021/10/28 17:09:17;;;;;;;25.20;14.32;;;;;;;6.48;85.45;97525.31;4956455;28;20474;-57
2021/10/28 17:11:43;;;;;;;25.67;14.85;;;;;;;6.61;84.63;97529.75;4963115;28;20038;-57
2021/10/28 17:14:08;;;;;;;24.98;14.23;;;;;;;6.57;84.27;97528.53;4962239;28;20027;-57
2021/10/28 17:16:36;;;;;;;25.35;14.45;;;;;;;6.63;84.34;97527.63;4958575;28;20063;-57
2021/10/28 17:19:02;;;;;;;27.08;17.13;;;;;;;6.65;85.17;97527.44;4962275;28;20073;-60
2021/10/28 17:21:28;;;;;;;25.27;14.93;;;;;;;6.70;84.95;97524.06;4962199;28;20018;-61
2021/10/28 17:24:05;;;;;;;23.02;14.77;;;;;;;6.92;84.32;97529.03;4963740;28;20054;-55
2021/10/28 17:26:32;;;;;;;25.23;14.70;;;;;;;7.10;82.87;97522.78;4960701;28;20035;-58
2021/10/28 17:29:01;;;;;;;27.27;15.48;;;;;;;6.95;83.39;97532.06;4951990;28;20034;-63
2021/10/28 17:31:32;;;;;;;29.73;16.38;;;;;;;6.68;83.99;97532.38;4949869;28;20031;-61
2021/10/28 17:33:58;;;;;;;28.98;14.82;;;;;;;6.63;83.54;97533.03;4955816;28;20559;-60
2021/10/28 17:36:26;;;;;;;24.88;14.82;;;;;;;6.85;83.41;97531.75;4937651;28;20046;-59
2021/10/28 17:38:51;;;;;;;26.40;15.38;;;;;;;7.02;82.95;97529.31;4955954;28;20054;-60
2021/10/28 17:41:18;;;;;;;24.90;15.20;;;;;;;7.03;82.05;97525.56;4962287;28;20045;-58
2021/10/28 17:43:50;;;;;;;26.70;14.73;;;;;;;6.91;82.38;97530.88;4963134;28;20441;-57
2021/10/28 17:46:15;;;;;;;25.77;14.65;;;;;;;6.80;82.81;97524.38;4959529;28;20518;-57
2021/10/28 17:48:41;;;;;;;25.33;15.45;;;;;;;6.81;82.65;97522.50;4958863;28;20030;-50
2021/10/28 17:51:07;;;;;;;21.02;13.20;;;;;;;6.85;82.48;97527.22;4962391;28;20596;-56
2021/10/28 17:53:32;;;;;;;24.30;14.57;;;;;;;6.88;82.11;97524.06;4956381;28;20038;-55
2021/10/28 17:55:58;;;;;;;24.35;14.02;;;;;;;6.70;82.83;97515.97;4959973;28;20045;-53
2021/10/28 17:58:24;;;;;;;25.27;13.88;;;;;;;6.73;82.71;97518.22;4964212;28;20035;-57
2021/10/28 18:00:49;;;;;;;26.08;14.32;;;;;;;6.74;82.14;97517.19;4961446;28;20463;-56
2021/10/28 18:03:19;;;;;;;25.73;14.57;;;;;;;6.72;82.59;97524.66;4957186;28;20035;-56
2021/10/28 18:05:45;;;;;;;22.60;13.68;;;;;;;6.52;82.48;97522.97;4949829;28;20047;-53
2021/10/28 18:08:10;;;;;;;25.58;14.25;;;;;;;6.14;83.32;97513.19;4958082;28;20030;-56
2021/10/28 18:10:36;;;;;;;33.33;21.05;;;;;;;5.80;84.16;97516.94;4956897;28;20134;-57
2021/10/28 18:13:03;;;;;;;28.52;14.95;;;;;;;5.81;85.67;97517.75;4966356;28;20042;-57
2021/10/28 18:15:29;;;;;;;35.10;17.70;;;;;;;5.83;85.47;97516.50;4963830;28;20031;-53
2021/10/28 18:17:55;;;;;;;30.98;17.65;;;;;;;5.71;85.03;97518.22;4963404;28;20038;-56
2021/10/28 18:20:20;;;;;;;28.20;17.85;;;;;;;5.56;86.00;97513.16;4966552;28;20034;-56
2021/10/28 18:22:48;;;;;;;29.08;15.75;;;;;;;5.45;86.83;97509.28;4966165;28;20035;-56
2021/10/28 18:25:14;;;;;;;26.60;14.95;;;;;;;5.44;86.36;97511.16;4956085;28;20536;-57
2021/10/28 18:27:40;;;;;;;27.20;15.90;;;;;;;5.51;86.97;97513.81;4955188;28;20043;-52
2021/10/28 18:30:09;;;;;;;29.73;15.88;;;;;;;5.67;86.10;97500.88;4964550;28;20030;-54
2021/10/28 18:32:35;;;;;;;25.55;16.42;;;;;;;5.59;86.46;97499.28;4966557;28;20035;-55
2021/10/28 18:35:01;;;;;;;28.75;16.00;;;;;;;5.58;85.98;97503.03;4966649;28;20034;-51
2021/10/28 18:37:26;;;;;;;28.45;15.18;;;;;;;5.64;85.24;97498.66;4960023;28;20824;-51
2021/10/28 18:39:52;;;;;;;27.92;16.15;;;;;;;5.59;85.57;97502.81;4966272;28;20034;-55
2021/10/28 18:42:18;;;;;;;27.05;15.43;;;;;;;5.65;85.23;97500.31;4966600;28;20097;-56
2021/10/28 18:44:44;;;;;;;23.98;15.60;;;;;;;5.64;85.79;97499.47;4956759;28;20067;-57
2021/10/28 18:47:09;;;;;;;24.85;14.55;;;;;;;5.72;85.59;97493.03;4958869;28;20116;-57
2021/10/28 18:49:35;;;;;;;26.00;15.52;;;;;;;5.81;84.96;97490.88;4952507;28;20067;-56
2021/10/28 18:52:00;;;;;;;25.67;14.38;;;;;;;5.76;84.53;97485.34;4959616;28;20069;-55
2021/10/28 18:54:25;;;;;;;27.40;15.32;;;;;;;5.72;84.49;97483.09;4954272;28;20090;-56
2021/10/28 18:56:51;;;;;;;27.35;15.20;;;;;;;5.48;85.35;97479.31;4967603;28;20134;-56
2021/10/28 18:59:17;;;;;;;25.70;15.35;;;;;;;5.51;85.25;97484.28;4962450;28;20118;-56
2021/10/28 19:01:44;;;;;;;23.55;15.60;;;;;;;5.47;84.69;97481.22;4963966;28;20776;-56
2021/10/28 19:04:10;;;;;;;26.13;15.75;;;;;;;5.48;84.84;97473.94;4960999;28;20097;-56
2021/10/28 19:06:36;;;;;;;26.08;16.70;;;;;;;5.34;85.25;97465.16;4960637;28;20026;-56
2021/10/28 19:09:02;;;;;;;26.65;15.38;;;;;;;5.32;85.18;97470.75;4966563;28;20074;-53
2021/10/28 19:11:28;;;;;;;27.83;15.75;;;;;;;5.37;84.71;97464.72;4966265;28;20047;-55
2021/10/28 19:13:55;;;;;;;25.55;15.25;;;;;;;5.38;84.64;97466.38;4962724;28;20054;-55
2021/10/28 19:16:21;;;;;;;23.33;14.45;;;;;;;5.42;84.24;97464.09;4960418;28;20050;-51
2021/10/28 19:18:46;;;;;;;23.27;14.38;;;;;;;5.39;84.34;97462.66;4962801;28;20031;-54
2021/10/28 19:21:13;;;;;;;22.75;14.75;;;;;;;5.34;85.00;97459.78;4962244;28;20058;-50
2021/10/28 19:23:39;;;;;;;26.40;14.73;;;;;;;5.31;84.95;97455.66;4954118;28;20406;-58
2021/10/28 19:26:05;;;;;;;26.67;15.20;;;;;;;5.10;85.19;97464.03;4955864;28;20027;-58
2021/10/28 19:28:31;;;;;;;27.58;14.60;;;;;;;4.94;85.49;97452.78;4958406;28;20039;-59
2021/10/28 19:31:12;;;;;;;31.90;16.35;;;;;;;4.97;85.66;97451.53;4960203;28;20146;-58
2021/10/28 19:33:45;;;;;;;27.27;14.98;;;;;;;4.98;86.23;97443.28;4954697;28;20047;-59
2021/10/28 19:36:24;;;;;;;30.02;17.02;;;;;;;4.77;86.81;97447.91;4957022;28;20031;-58
2021/10/28 19:46:42;;;;;;;28.73;15.73;;;;;;;4.73;88.23;97453.88;4961800;28;20027;-58
2021/10/28 19:49:07;;;;;;;25.13;14.30;;;;;;;4.93;87.48;97448.44;4960699;28;20034;-54
2021/10/28 19:51:33;;;;;;;30.63;18.27;;;;;;;4.94;87.07;97444.72;4962209;28;20023;-56
2021/10/28 19:54:00;;;;;;;34.17;21.45;;;;;;;4.83;87.56;97448.88;4962530;28;20038;-57
2021/10/28 19:56:26;;;;;;;44.65;28.95;;;;;;;4.62;87.90;97447.31;4960898;28;20019;-56
2021/10/28 19:58:57;;;;;;;28.20;15.43;;;;;;;4.45;87.02;97447.78;4958991;28;20045;-59
2021/10/28 20:22:07;;;;;;;27.75;16.27;;;;;;;4.32;88.13;97434.41;4956461;28;20096;-57
2021/10/28 20:24:32;;;;;;;28.40;15.13;;;;;;;4.46;88.92;97429.84;4950953;28;20026;-56
2021/10/28 20:26:58;;;;;;;27.50;16.38;;;;;;;4.46;88.93;97421.81;4951747;28;20043;-55
2021/10/28 20:29:23;;;;;;;24.77;15.48;;;;;;;4.49;89.29;97424.06;4952051;28;20038;-57
2021/10/28 20:31:49;;;;;;;24.15;14.77;;;;;;;4.68;89.06;97422.31;4955592;28;20487;-55
2021/10/28 20:34:26;;;;;;;27.50;13.20;;;;;;;4.86;88.88;97421.63;4951704;28;20365;-56
2021/10/28 20:37:09;;;;;;;32.90;19.35;;;;;;;4.60;87.98;97423.41;4953570;28;20035;-56
2021/10/28 20:39:44;;;;;;;26.25;14.77;;;;;;;4.39;88.27;97417.28;4949776;28;20031;-56
2021/10/28 20:42:12;;;;;;;25.45;15.07;;;;;;;4.27;88.46;97427.00;4950301;28;20023;-57
2021/10/28 20:44:38;;;;;;;22.15;13.30;;;;;;;4.31;88.92;97414.81;4952621;28;20038;-56
2021/10/28 20:47:04;;;;;;;20.58;12.63;;;;;;;4.45;88.73;97412.94;4954001;28;20037;-57